Time;durP1;ratioP1;P1;durP2;ratioP2;P2;SDS_P1;SDS_P2;PMS_P1;PMS_P2;Temp;Humidity;BMP_temperature;BMP_pressure;BME280_temperature;BME280_humidity;BME280_pressure;Samples;Min_cycle;Max_cycle;Signal;HPM_P1;HPM_P2
2021/11/21 00:00:38;;;;;;;;;;;;;;;8.61;78.82;100209.80;1584063;90;20569;-75
2021/11/21 00:03:06;;;;;;;;;;;;;;;8.61;78.81;100209.80;1584327;90;20166;-75
2021/11/21 00:05:32;;;;;;;;;;;;;;;8.61;78.78;100207.14;1584069;89;21165;-75
2021/11/21 00:07:57;;;;;;;;;;;;;;;8.61;78.77;100201.83;1583268;90;20283;-75
2021/11/21 00:10:23;;;;;;;;;;;;;;;8.60;78.71;100198.33;1585266;90;20221;-75
2021/11/21 00:12:49;;;;;;;;;;;;;;;8.59;78.71;100199.80;1585173;89;20710;-75
2021/11/21 00:15:15;;;;;;;;;;;;;;;8.58;78.69;100191.52;1584979;88;20316;-75
2021/11/21 00:17:41;;;;;;;;;;;;;;;8.58;78.65;100188.86;1585111;90;21937;-75
2021/11/21 00:20:16;;;;;;;;;;;;;;;8.57;78.61;100188.02;1585211;90;20861;-75
2021/11/21 00:22:36;;;;;;;;;;;;;;;8.58;78.59;100186.20;1586481;88;20197;-75
2021/11/21 00:25:03;;;;;;;;;;;;;;;8.58;78.56;100188.86;1589191;89;20591;-75
2021/11/21 00:27:29;;;;;;;;;;;;;;;8.57;78.53;100179.22;1595667;89;20186;-75
2021/11/21 00:29:55;;;;;;;;;;;;;;;8.57;78.53;100182.70;1608975;89;21190;-75
2021/11/21 00:32:20;;;;;;;;;;;;;;;8.56;78.52;100174.39;1609019;89;20228;-75
2021/11/21 00:34:48;;;;;;;;;;;;;;;8.55;78.48;100173.24;1608825;89;20275;-75
2021/11/21 00:37:15;;;;;;;;;;;;;;;8.55;78.47;100174.05;1609049;89;20200;-74
2021/11/21 00:39:40;;;;;;;;;;;;;;;8.56;78.46;100172.23;1608944;87;20502;-75
2021/11/21 00:42:06;;;;;;;;;;;;;;;8.53;78.45;100172.90;1609141;89;22384;-75
2021/11/21 00:44:32;;;;;;;;;;;;;;;8.52;78.42;100171.23;1609058;89;20248;-75
2021/11/21 00:46:58;;;;;;;;;;;;;;;8.52;78.41;100165.91;1609058;89;20304;-75
2021/11/21 00:49:24;;;;;;;;;;;;;;;8.53;78.39;100163.59;1609017;89;20278;-75
2021/11/21 00:51:49;;;;;;;;;;;;;;;8.52;78.36;100161.92;1609050;89;20189;-75
2021/11/21 00:57:00;;;;;;;;;;;;;;;8.52;78.32;100159.76;1609015;89;20219;-75
2021/11/21 00:59:26;;;;;;;;;;;;;;;8.51;78.30;100157.59;1590976;89;20273;-75
2021/11/21 01:01:51;;;;;;;;;;;;;;;8.50;78.30;100158.61;1589315;89;20719;-75
2021/11/21 01:04:17;;;;;;;;;;;;;;;8.50;78.30;100155.12;1610473;89;20171;-75
2021/11/21 01:06:44;;;;;;;;;;;;;;;8.49;78.27;100156.10;1610383;89;21319;-75
2021/11/21 01:09:10;;;;;;;;;;;;;;;8.49;78.26;100154.28;1610351;89;20452;-75
2021/11/21 01:11:36;;;;;;;;;;;;;;;8.49;78.25;100154.28;1610489;89;20206;-75
2021/11/21 01:14:01;;;;;;;;;;;;;;;8.48;78.24;100146.45;1610232;89;20195;-75
2021/11/21 01:16:27;;;;;;;;;;;;;;;8.47;78.24;100146.98;1610105;88;20183;-75
2021/11/21 01:18:53;;;;;;;;;;;;;;;8.47;78.22;100139.50;1610562;89;21177;-75
2021/11/21 01:21:19;;;;;;;;;;;;;;;8.45;78.22;100139.66;1610397;89;20272;-75
2021/11/21 01:23:45;;;;;;;;;;;;;;;8.45;78.19;100138.32;1610369;89;20266;-75
2021/11/21 01:26:10;;;;;;;;;;;;;;;8.44;78.20;100140.64;1610395;89;20266;-75
2021/11/21 01:28:36;;;;;;;;;;;;;;;8.43;78.15;100131.02;1610425;89;20175;-75
2021/11/21 01:31:02;;;;;;;;;;;;;;;8.43;78.13;100127.04;1610537;89;21245;-75
2021/11/21 01:33:28;;;;;;;;;;;;;;;8.44;78.13;100133.19;1610414;88;20858;-75
2021/11/21 01:35:54;;;;;;;;;;;;;;;8.42;78.11;100125.36;1608989;89;20218;-75
2021/11/21 01:38:20;;;;;;;;;;;;;;;8.42;78.08;100130.68;1586706;89;20277;-75
2021/11/21 01:40:46;;;;;;;;;;;;;;;8.41;78.07;100122.86;1584950;89;20309;-75
2021/11/21 01:43:12;;;;;;;;;;;;;;;8.40;78.05;100118.06;1585258;90;21842;-75
2021/11/21 01:45:38;;;;;;;;;;;;;;;8.40;78.01;100103.95;1585030;90;20166;-75
2021/11/21 01:48:04;;;;;;;;;;;;;;;8.39;77.98;100097.80;1584992;90;20267;-75
2021/11/21 01:50:32;;;;;;;;;;;;;;;8.37;77.95;100101.09;1585066;90;20441;-75
2021/11/21 01:52:58;;;;;;;;;;;;;;;8.36;77.96;100087.50;1584469;89;20492;-75
2021/11/21 01:55:24;;;;;;;;;;;;;;;8.36;77.95;100084.00;1585138;88;21793;-74
2021/11/21 01:57:49;;;;;;;;;;;;;;;8.34;77.95;100092.13;1585178;88;20562;-75
2021/11/21 02:00:15;;;;;;;;;;;;;;;8.33;77.92;100079.02;1584768;89;20309;-75
2021/11/21 02:02:41;;;;;;;;;;;;;;;8.34;77.89;100076.68;1584618;90;20165;-75
2021/11/21 02:05:08;;;;;;;;;;;;;;;8.32;77.89;100070.71;1585069;90;20269;-75
2021/11/21 02:07:34;;;;;;;;;;;;;;;8.32;77.83;100069.38;1585148;90;21031;-75
2021/11/21 02:09:59;;;;;;;;;;;;;;;8.31;77.83;100071.20;1584956;90;20277;-75
2021/11/21 02:12:25;;;;;;;;;;;;;;;8.31;77.80;100067.22;1585062;90;20305;-75
2021/11/21 02:14:51;;;;;;;;;;;;;;;8.30;77.76;100058.10;1554148;90;20188;-75
2021/11/21 02:17:17;;;;;;;;;;;;;;;8.28;77.74;100058.25;1597682;88;20252;-75
2021/11/21 02:19:43;;;;;;;;;;;;;;;8.27;77.71;100051.23;1600994;89;21229;-75
2021/11/21 02:22:08;;;;;;;;;;;;;;;8.28;77.68;100053.40;1600873;89;20173;-75
2021/11/21 02:24:34;;;;;;;;;;;;;;;8.27;77.67;100053.89;1600954;89;20197;-75
2021/11/21 02:27:02;;;;;;;;;;;;;;;8.26;77.65;100050.92;1607300;89;20160;-75
2021/11/21 02:29:27;;;;;;;;;;;;;;;8.25;77.62;100049.25;1614413;88;20199;-75
2021/11/21 02:31:53;;;;;;;;;;;;;;;8.26;77.63;100054.91;1614153;88;21003;-75
2021/11/21 02:34:19;;;;;;;;;;;;;;;8.25;77.59;100053.23;1614072;88;20195;-75
2021/11/21 02:36:45;;;;;;;;;;;;;;;8.26;77.57;100048.77;1609355;88;20573;-75
2021/11/21 02:39:11;;;;;;;;;;;;;;;8.26;77.55;100052.25;1601017;89;20385;-75
2021/11/21 02:41:37;;;;;;;;;;;;;;;8.24;77.53;100044.92;1600979;89;20182;-75
2021/11/21 02:44:03;;;;;;;;;;;;;;;8.24;77.52;100050.73;1601031;89;21178;-75
2021/11/21 02:46:31;;;;;;;;;;;;;;;8.23;77.54;100048.59;1601133;89;20681;-75
2021/11/21 02:48:57;;;;;;;;;;;;;;;8.22;77.54;100034.97;1600772;88;20171;-75
2021/11/21 02:51:23;;;;;;;;;;;;;;;8.21;77.53;100042.60;1601805;89;20190;-75
2021/11/21 02:53:49;;;;;;;;;;;;;;;8.20;77.50;100027.65;1601133;89;20269;-75
2021/11/21 02:56:16;;;;;;;;;;;;;;;8.20;77.48;100038.27;1601065;89;21253;-75
2021/11/21 02:58:42;;;;;;;;;;;;;;;8.18;77.48;100028.33;1601072;89;20167;-75
2021/11/21 03:01:10;;;;;;;;;;;;;;;8.18;77.46;100030.98;1600960;89;20212;-75
2021/11/21 03:03:36;;;;;;;;;;;;;;;8.17;77.44;100025.33;1608963;89;20163;-75
2021/11/21 03:06:02;;;;;;;;;;;;;;;8.16;77.45;100026.83;1613982;88;20312;-75
2021/11/21 03:08:28;;;;;;;;;;;;;;;8.15;77.44;100024.67;1614336;88;21815;-75
2021/11/21 03:10:54;;;;;;;;;;;;;;;8.13;77.45;100027.97;1614151;88;20199;-75
2021/11/21 03:13:20;;;;;;;;;;;;;;;8.14;77.44;100030.13;1613982;88;20173;-73
2021/11/21 03:15:45;;;;;;;;;;;;;;;8.12;77.45;100021.02;1613914;88;20168;-73
2021/11/21 03:18:11;;;;;;;;;;;;;;;8.10;77.42;100015.02;1601417;89;20179;-73
2021/11/21 03:20:37;;;;;;;;;;;;;;;8.09;77.42;100020.02;1599348;89;21274;-73
2021/11/21 03:23:04;;;;;;;;;;;;;;;8.09;77.43;100025.33;1599243;89;20236;-73
2021/11/21 03:25:30;;;;;;;;;;;;;;;8.08;77.45;100021.00;1599407;88;20191;-73
2021/11/21 03:27:56;;;;;;;;;;;;;;;8.07;77.45;100020.66;1599451;88;20197;-73
2021/11/21 03:30:22;;;;;;;;;;;;;;;8.06;77.43;100019.52;1599436;89;20837;-73
2021/11/21 03:32:48;;;;;;;;;;;;;;;8.04;77.42;100018.34;1599375;89;21280;-73
2021/11/21 03:35:14;;;;;;;;;;;;;;;8.04;77.43;100013.86;1599165;89;20189;-73
2021/11/21 03:37:40;;;;;;;;;;;;;;;8.05;77.45;100005.41;1599561;89;20233;-73
2021/11/21 03:40:07;;;;;;;;;;;;;;;8.02;77.44;100001.23;1599326;89;20185;-73
2021/11/21 03:42:33;;;;;;;;;;;;;;;8.02;77.46;99996.44;1608979;89;20165;-73
2021/11/21 03:44:59;;;;;;;;;;;;;;;8.01;77.46;99997.42;1610162;88;21240;-73
2021/11/21 03:47:24;;;;;;;;;;;;;;;8.01;77.45;99996.09;1610439;89;20911;-73
2021/11/21 03:49:50;;;;;;;;;;;;;;;8.00;77.44;99995.75;1610196;88;20291;-73
2021/11/21 03:52:17;;;;;;;;;;;;;;;7.99;77.46;99988.77;1605803;88;20166;-73
2021/11/21 03:54:43;;;;;;;;;;;;;;;7.98;77.45;99985.81;1599355;88;20181;-73
2021/11/21 03:57:09;;;;;;;;;;;;;;;7.98;77.46;99981.83;1599646;88;21282;-73
2021/11/21 03:59:35;;;;;;;;;;;;;;;7.97;77.45;99981.48;1599357;89;20399;-73
2021/11/21 04:02:01;;;;;;;;;;;;;;;7.95;77.46;99974.19;1599461;89;20216;-73
2021/11/21 04:04:28;;;;;;;;;;;;;;;7.94;77.48;99965.88;1599295;89;20199;-73
2021/11/21 04:06:54;;;;;;;;;;;;;;;7.92;77.48;99967.36;1599377;89;20171;-74
2021/11/21 04:09:19;;;;;;;;;;;;;;;7.91;77.50;99954.27;1599310;89;21294;-73
2021/11/21 04:11:45;;;;;;;;;;;;;;;7.89;77.51;99952.25;1599527;89;20351;-73
2021/11/21 04:14:11;;;;;;;;;;;;;;;7.87;77.53;99956.42;1599313;88;20216;-73
2021/11/21 04:16:37;;;;;;;;;;;;;;;7.86;77.52;99954.75;1599487;88;20193;-73
2021/11/21 04:19:04;;;;;;;;;;;;;;;7.85;77.54;99953.56;1612340;89;20279;-73
2021/11/21 04:21:30;;;;;;;;;;;;;;;7.84;77.57;99947.95;1614357;88;21202;-74
2021/11/21 04:23:57;;;;;;;;;;;;;;;7.84;77.56;99942.64;1613755;89;20174;-74
2021/11/21 04:26:22;;;;;;;;;;;;;;;7.81;77.60;99937.66;1614202;88;20468;-73
2021/11/21 04:28:48;;;;;;;;;;;;;;;7.80;77.61;99938.16;1614153;89;20191;-73
2021/11/21 04:31:14;;;;;;;;;;;;;;;7.80;77.63;99937.32;1614273;88;20247;-73
2021/11/21 04:33:40;;;;;;;;;;;;;;;7.78;77.65;99932.66;1614160;88;21223;-73
2021/11/21 04:36:06;;;;;;;;;;;;;;;7.77;77.66;99935.00;1614145;88;20203;-74
2021/11/21 04:38:32;;;;;;;;;;;;;;;7.76;77.67;99932.00;1614106;88;20227;-73
2021/11/21 04:40:57;;;;;;;;;;;;;;;7.73;77.68;99921.72;1614053;87;20700;-74
2021/11/21 04:43:23;;;;;;;;;;;;;;;7.73;77.70;99927.02;1602674;88;20265;-74
2021/11/21 04:45:49;;;;;;;;;;;;;;;7.72;77.71;99922.20;1600952;89;21180;-74
2021/11/21 04:48:15;;;;;;;;;;;;;;;7.71;77.71;99921.03;1600957;89;20155;-74
2021/11/21 04:50:41;;;;;;;;;;;;;;;7.69;77.73;99923.03;1601161;89;20454;-74
2021/11/21 04:53:07;;;;;;;;;;;;;;;7.68;77.73;99924.02;1601027;89;20258;-74
2021/11/21 04:55:33;;;;;;;;;;;;;;;7.68;77.75;99924.02;1601128;89;20189;-74
2021/11/21 04:57:59;;;;;;;;;;;;;;;7.67;77.76;99922.38;1601210;89;21728;-74
2021/11/21 05:00:25;;;;;;;;;;;;;;;7.67;77.76;99917.06;1614385;89;20226;-74
2021/11/21 05:02:50;;;;;;;;;;;;;;;7.67;77.78;99923.70;1614184;88;20223;-74
2021/11/21 05:05:17;;;;;;;;;;;;;;;7.64;77.80;99916.87;1614163;89;20224;-74
2021/11/21 05:07:43;;;;;;;;;;;;;;;7.64;77.78;99910.73;1614445;89;20189;-74
2021/11/21 05:10:09;;;;;;;;;;;;;;;7.64;77.79;99913.39;1614361;88;21877;-74
2021/11/21 05:12:37;;;;;;;;;;;;;;;7.63;77.81;99914.41;1614268;89;20787;-74
2021/11/21 05:15:04;;;;;;;;;;;;;;;7.63;77.81;99913.08;1613186;88;20487;-74
2021/11/21 05:17:30;;;;;;;;;;;;;;;7.62;77.82;99908.75;1599370;88;20219;-73
2021/11/21 05:19:58;;;;;;;;;;;;;;;7.61;77.80;99907.08;1585109;89;20810;-73
2021/11/21 05:22:24;;;;;;;;;;;;;;;7.60;77.84;99905.44;1585161;90;21088;-74
2021/11/21 05:24:50;;;;;;;;;;;;;;;7.62;77.84;99904.77;1584996;90;20481;-74
2021/11/21 05:27:15;;;;;;;;;;;;;;;7.60;77.86;99908.09;1585148;90;20233;-73
2021/11/21 05:29:41;;;;;;;;;;;;;;;7.59;77.87;99902.45;1585100;90;20185;-74
2021/11/21 05:32:07;;;;;;;;;;;;;;;7.56;77.87;99902.28;1584967;90;20249;-74
2021/11/21 05:34:33;;;;;;;;;;;;;;;7.56;77.86;99905.43;1585119;89;21124;-74
2021/11/21 05:36:59;;;;;;;;;;;;;;;7.53;77.88;99911.38;1584968;90;20205;-74
2021/11/21 05:39:25;;;;;;;;;;;;;;;7.51;77.89;99909.40;1585102;89;20324;-74
2021/11/21 05:41:50;;;;;;;;;;;;;;;7.49;77.91;99900.75;1585131;88;20844;-74
2021/11/21 05:44:16;;;;;;;;;;;;;;;7.49;77.91;99904.73;1585027;88;20285;-74
2021/11/21 05:46:42;;;;;;;;;;;;;;;7.47;77.91;99905.89;1585090;90;20946;-74
2021/11/21 05:49:08;;;;;;;;;;;;;;;7.46;77.93;99902.41;1584912;89;20143;-74
2021/11/21 05:51:35;;;;;;;;;;;;;;;7.45;77.94;99892.81;1585329;90;20236;-74
2021/11/21 05:54:00;;;;;;;;;;;;;;;7.44;77.95;99896.45;1585097;90;20191;-74
2021/11/21 05:56:26;;;;;;;;;;;;;;;7.45;77.96;99904.75;1585101;90;20283;-74
2021/11/21 05:58:52;;;;;;;;;;;;;;;7.44;77.95;99896.45;1585156;90;21884;-74
2021/11/21 06:01:18;;;;;;;;;;;;;;;7.43;77.96;99894.78;1585188;89;20269;-74
2021/11/21 06:03:44;;;;;;;;;;;;;;;7.44;77.96;99888.98;1585047;90;20269;-74
2021/11/21 06:06:10;;;;;;;;;;;;;;;7.42;77.96;99887.80;1585052;90;20580;-74
2021/11/21 06:08:36;;;;;;;;;;;;;;;7.43;78.00;99876.20;1585121;89;20166;-74
2021/11/21 06:11:02;;;;;;;;;;;;;;;7.41;77.98;99879.53;1585127;90;21216;-74
2021/11/21 06:13:28;;;;;;;;;;;;;;;7.41;77.98;99872.90;1585110;88;20213;-74
2021/11/21 06:15:54;;;;;;;;;;;;;;;7.40;77.98;99863.27;1584977;90;20299;-74
2021/11/21 06:18:19;;;;;;;;;;;;;;;7.40;77.98;99868.58;1609807;88;20184;-74
2021/11/21 06:20:46;;;;;;;;;;;;;;;7.39;78.00;99869.56;1608116;88;20220;-74
2021/11/21 06:23:12;;;;;;;;;;;;;;;7.38;78.00;99869.74;1606628;88;21879;-74
2021/11/21 06:25:39;;;;;;;;;;;;;;;7.35;78.00;99852.31;1606477;89;20157;-74
2021/11/21 06:28:05;;;;;;;;;;;;;;;7.38;78.01;99865.27;1606524;89;20164;-74
2021/11/21 06:30:30;;;;;;;;;;;;;;;7.35;78.00;99856.28;1605815;88;20215;-74
2021/11/21 06:32:56;;;;;;;;;;;;;;;7.37;78.03;99862.28;1606306;87;20244;-74
2021/11/21 06:35:22;;;;;;;;;;;;;;;7.36;78.04;99860.61;1606636;89;21320;-74
2021/11/21 06:37:48;;;;;;;;;;;;;;;7.37;78.04;99852.16;1606465;88;20269;-74
2021/11/21 06:40:14;;;;;;;;;;;;;;;7.37;78.04;99852.99;1606586;89;20231;-74
2021/11/21 06:42:41;;;;;;;;;;;;;;;7.36;78.03;99851.33;1606546;89;20701;-74
2021/11/21 06:45:07;;;;;;;;;;;;;;;7.36;78.04;99852.65;1606641;88;20174;-74
2021/11/21 06:47:33;;;;;;;;;;;;;;;7.36;78.05;99854.47;1606435;88;21061;-74
2021/11/21 06:50:01;;;;;;;;;;;;;;;7.35;78.05;99847.00;1606455;88;20229;-74
2021/11/21 06:52:29;;;;;;;;;;;;;;;7.36;78.05;99851.33;1606625;89;20158;-74
2021/11/21 06:54:54;;;;;;;;;;;;;;;7.36;78.05;99850.48;1604372;88;20889;-74
2021/11/21 06:57:21;;;;;;;;;;;;;;;7.35;78.07;99848.33;1604395;89;20189;-74
2021/11/21 06:59:47;;;;;;;;;;;;;;;7.36;78.06;99852.65;1602852;89;21159;-75
2021/11/21 07:02:13;;;;;;;;;;;;;;;7.38;78.10;99852.01;1604531;89;20163;-74
2021/11/21 07:04:38;;;;;;;;;;;;;;;7.38;78.09;99855.98;1605809;89;20256;-75
2021/11/21 07:07:08;;;;;;;;;;;;;;;7.38;78.11;99858.64;1605588;89;20627;-75
2021/11/21 07:09:34;;;;;;;;;;;;;;;7.39;78.09;99858.95;1605808;89;20170;-75
2021/11/21 07:11:59;;;;;;;;;;;;;;;7.39;78.09;99861.61;1605078;88;21390;-75
2021/11/21 07:14:25;;;;;;;;;;;;;;;7.40;78.10;99865.92;1603669;89;20272;-75
2021/11/21 07:16:51;;;;;;;;;;;;;;;7.40;78.11;99860.62;1604838;89;20192;-74
2021/11/21 07:19:17;;;;;;;;;;;;;;;7.41;78.12;99864.11;1598295;88;20201;-74
2021/11/21 07:21:44;;;;;;;;;;;;;;;7.39;78.11;99857.63;1598570;89;20170;-74
2021/11/21 07:24:10;;;;;;;;;;;;;;;7.40;78.11;99864.59;1598627;89;22008;-76
2021/11/21 07:26:36;;;;;;;;;;;;;;;7.39;78.12;99861.61;1598596;89;20155;-75
2021/11/21 07:29:04;;;;;;;;;;;;;;;7.40;78.11;99854.48;1598269;88;20233;-75
2021/11/21 07:31:30;;;;;;;;;;;;;;;7.40;78.12;99860.62;1598561;89;20171;-75
2021/11/21 07:33:56;;;;;;;;;;;;;;;7.40;78.13;99857.13;1598691;88;20241;-75
2021/11/21 07:36:22;;;;;;;;;;;;;;;7.40;78.14;99853.98;1597137;88;20847;-75
2021/11/21 07:38:48;;;;;;;;;;;;;;;7.40;78.13;99865.92;1599401;89;20217;-73
2021/11/21 07:41:14;;;;;;;;;;;;;;;7.41;78.15;99862.78;1599232;88;20240;-74
2021/11/21 07:43:40;;;;;;;;;;;;;;;7.39;78.15;99858.95;1599461;89;20199;-74
2021/11/21 07:46:07;;;;;;;;;;;;;;;7.39;78.16;99872.70;1599419;89;20174;-74
2021/11/21 07:48:33;;;;;;;;;;;;;;;7.40;78.17;99871.23;1605363;88;21254;-74
2021/11/21 07:51:00;;;;;;;;;;;;;;;7.39;78.19;99872.22;1599228;89;20284;-74
2021/11/21 07:53:26;;;;;;;;;;;;;;;7.39;78.18;99879.34;1599474;89;20229;-75
2021/11/21 07:55:52;;;;;;;;;;;;;;;7.37;78.20;99878.68;1579742;89;20191;-73
2021/11/21 07:58:18;;;;;;;;;;;;;;;7.35;78.20;99878.83;1599331;89;20168;-75
2021/11/21 08:00:44;;;;;;;;;;;;;;;7.35;78.23;99879.36;1599370;89;21099;-74
2021/11/21 08:03:10;;;;;;;;;;;;;;;7.34;78.21;99875.87;1599062;89;20341;-77
2021/11/21 08:05:36;;;;;;;;;;;;;;;7.35;78.23;99873.52;1599372;89;20284;-75
2021/11/21 08:08:02;;;;;;;;;;;;;;;7.35;78.26;99876.18;1599294;88;20195;-74
2021/11/21 08:10:28;;;;;;;;;;;;;;;7.35;78.28;99878.83;1599431;89;20204;-75
2021/11/21 08:12:54;;;;;;;;;;;;;;;7.34;78.26;99881.17;1599188;89;21845;-75
2021/11/21 08:15:19;;;;;;;;;;;;;;;7.34;78.29;99871.89;1599357;89;20275;-75
2021/11/21 08:17:45;;;;;;;;;;;;;;;7.36;78.31;99873.03;1601789;88;20302;-75
2021/11/21 08:20:11;;;;;;;;;;;;;;;7.37;78.30;99868.91;1610917;89;20248;-74
2021/11/21 08:22:37;;;;;;;;;;;;;;;7.35;78.30;99868.22;1609603;88;20233;-75
2021/11/21 08:25:04;;;;;;;;;;;;;;;7.36;78.35;99863.75;1603891;89;21856;-77
2021/11/21 08:27:30;;;;;;;;;;;;;;;7.34;78.33;99859.95;1603186;89;20540;-76
2021/11/21 08:29:56;;;;;;;;;;;;;;;7.33;78.35;99863.59;1601027;89;20181;-74
2021/11/21 08:32:21;;;;;;;;;;;;;;;7.32;78.36;99860.59;1605926;89;20175;-75
2021/11/21 08:34:47;;;;;;;;;;;;;;;7.31;78.37;99857.63;1612246;88;20156;-76
2021/11/21 08:37:13;;;;;;;;;;;;;;;7.32;78.39;99852.64;1611986;88;21303;-74
2021/11/21 08:39:39;;;;;;;;;;;;;;;7.34;78.41;99863.93;1611240;88;20488;-75
2021/11/21 08:42:05;;;;;;;;;;;;;;;7.35;78.40;99865.56;1612046;89;20227;-74
2021/11/21 08:44:31;;;;;;;;;;;;;;;7.34;78.42;99859.95;1612079;89;20795;-75
2021/11/21 08:46:57;;;;;;;;;;;;;;;7.34;78.43;99862.61;1611937;89;20190;-76
2021/11/21 08:49:22;;;;;;;;;;;;;;;7.34;78.46;99865.26;1612076;88;20956;-75
2021/11/21 08:51:48;;;;;;;;;;;;;;;7.32;78.47;99860.59;1610680;88;20259;-74
2021/11/21 08:54:16;;;;;;;;;;;;;;;7.31;78.48;99864.27;1600969;89;20256;-75
2021/11/21 08:56:45;;;;;;;;;;;;;;;7.30;78.50;99865.24;1609065;89;20164;-75
2021/11/21 08:59:10;;;;;;;;;;;;;;;7.31;78.50;99865.59;1610585;89;20236;-74
2021/11/21 09:01:36;;;;;;;;;;;;;;;7.33;78.54;99863.59;1601077;89;20768;-74
2021/11/21 09:04:02;;;;;;;;;;;;;;;7.32;78.53;99857.94;1601627;89;20308;-75
2021/11/21 09:06:28;;;;;;;;;;;;;;;7.33;78.55;99860.94;1601080;89;20185;-75
2021/11/21 09:08:55;;;;;;;;;;;;;;;7.33;78.55;99859.61;1605487;89;20179;-74
2021/11/21 09:11:21;;;;;;;;;;;;;;;7.34;78.58;99858.63;1612022;88;21004;-74
2021/11/21 09:13:46;;;;;;;;;;;;;;;7.34;78.57;99862.61;1612226;88;21117;-75
2021/11/21 09:16:12;;;;;;;;;;;;;;;7.37;78.61;99860.95;1611813;88;20192;-74
2021/11/21 09:18:38;;;;;;;;;;;;;;;7.40;78.61;99863.27;1611756;89;20780;-73
2021/11/21 09:21:04;;;;;;;;;;;;;;;7.40;78.64;99861.95;1612118;88;20334;-74
2021/11/21 09:23:30;;;;;;;;;;;;;;;7.40;78.63;99857.97;1611318;88;20241;-76
2021/11/21 09:25:56;;;;;;;;;;;;;;;7.40;78.66;99865.92;1612307;89;21197;-74
2021/11/21 09:28:24;;;;;;;;;;;;;;;7.39;78.65;99866.91;1612046;89;20271;-75
2021/11/21 09:30:51;;;;;;;;;;;;;;;7.38;78.66;99859.97;1611908;89;20166;-76
2021/11/21 09:33:17;;;;;;;;;;;;;;;7.38;78.68;99865.27;1611012;89;20465;-74
2021/11/21 09:35:42;;;;;;;;;;;;;;;7.40;78.68;99863.27;1611976;88;20761;-74
2021/11/21 09:38:08;;;;;;;;;;;;;;;7.41;78.70;99867.59;1611529;88;22192;-75
2021/11/21 09:40:34;;;;;;;;;;;;;;;7.42;78.72;99861.27;1611757;89;20204;-74
2021/11/21 09:43:00;;;;;;;;;;;;;;;7.42;78.71;99861.80;1603074;89;20216;-74
2021/11/21 09:45:26;;;;;;;;;;;;;;;7.42;78.71;99855.97;1601785;89;20603;-74
2021/11/21 09:47:57;;;;;;;;;;;;;;;7.45;78.70;99857.48;1601004;89;20766;-76
2021/11/21 09:50:23;;;;;;;;;;;;;;;7.48;78.74;99856.66;1607285;89;21181;-75
2021/11/21 09:52:49;;;;;;;;;;;;;;;7.57;78.75;99848.70;1606581;88;20487;-75
2021/11/21 09:55:15;;;;;;;;;;;;;;;7.63;78.71;99844.08;1627065;88;20191;-74
2021/11/21 09:57:41;;;;;;;;;;;;;;;7.72;78.73;99851.05;1614582;88;20246;-75
2021/11/21 10:00:14;;;;;;;;;;;;;;;7.80;78.72;99845.74;1612210;88;20270;-76
2021/11/21 10:02:48;;;;;;;;;;;;;;;7.84;78.72;99843.93;1602517;88;21091;-76
2021/11/21 10:05:24;;;;;;;;;;;;;;;7.89;78.73;99845.57;1609748;88;20462;-75
2021/11/21 10:07:52;;;;;;;;;;;;;;;7.93;78.70;99840.76;1599904;89;20199;-76
2021/11/21 10:10:19;;;;;;;;;;;;;;;7.97;78.68;99844.74;1580613;89;20194;-76
2021/11/21 10:12:45;;;;;;;;;;;;;;;7.99;78.65;99844.06;1600000;89;20409;-77
2021/11/21 10:15:15;;;;;;;;;;;;;;;7.99;78.63;99841.41;1606256;88;21284;-77
2021/11/21 10:17:50;;;;;;;;;;;;;;;7.98;78.59;99845.92;1626969;88;20172;-77
2021/11/21 10:20:20;;;;;;;;;;;;;;;7.95;78.57;99844.09;1625915;88;20212;-76
2021/11/21 10:22:54;;;;;;;;;;;;;;;7.96;78.55;99843.08;1627027;88;20164;-77
2021/11/21 10:25:29;;;;;;;;;;;;;;;7.98;78.51;99854.38;1627061;88;20459;-76
2021/11/21 10:28:06;;;;;;;;;;;;;;;8.03;78.50;99854.69;1625957;88;21384;-76
2021/11/21 10:30:32;;;;;;;;;;;;;;;8.12;78.47;99849.72;1608416;88;20185;-76
2021/11/21 10:33:03;;;;;;;;;;;;;;;8.22;78.43;99842.41;1627065;88;20164;-77
2021/11/21 10:35:29;;;;;;;;;;;;;;;8.28;78.40;99836.90;1626939;88;20163;-76
2021/11/21 10:37:57;;;;;;;;;;;;;;;8.31;78.33;99836.09;1627022;88;20234;-77
2021/11/21 10:40:22;;;;;;;;;;;;;;;8.30;78.28;99837.61;1626346;87;21152;-76
2021/11/21 10:42:50;;;;;;;;;;;;;;;8.33;78.24;99834.12;1614452;88;20888;-75
2021/11/21 10:45:23;;;;;;;;;;;;;;;8.36;78.23;99827.63;1616450;88;20513;-75
2021/11/21 10:47:51;;;;;;;;;;;;;;;8.46;78.17;99832.25;1571359;91;20211;-76
2021/11/21 10:50:31;;;;;;;;;;;;;;;8.57;78.13;99827.06;1571139;91;20225;-75
2021/11/21 10:52:57;;;;;;;;;;;;;;;8.59;78.06;99823.72;1618673;88;21100;-76
2021/11/21 10:55:23;;;;;;;;;;;;;;;8.59;78.04;99827.71;1633343;87;20176;-75
2021/11/21 10:57:49;;;;;;;;;;;;;;;8.62;78.00;99830.05;1597219;89;20336;-75
2021/11/21 11:00:16;;;;;;;;;;;;;;;8.61;77.94;99822.58;1600545;89;20185;-75
2021/11/21 11:02:42;;;;;;;;;;;;;;;8.67;77.94;99830.35;1601340;89;20151;-76
2021/11/21 11:05:12;;;;;;;;;;;;;;;8.71;77.90;99821.04;1601320;89;21813;-74
2021/11/21 11:07:41;;;;;;;;;;;;;;;8.73;77.86;99820.35;1596557;89;20546;-74
2021/11/21 11:10:11;;;;;;;;;;;;;;;8.67;77.79;99817.06;1595467;88;20208;-75
2021/11/21 11:12:37;;;;;;;;;;;;;;;8.59;77.73;99816.58;1597639;89;20195;-75
2021/11/21 11:15:03;;;;;;;;;;;;;;;8.52;77.70;99814.28;1597810;89;20245;-74
2021/11/21 11:17:30;;;;;;;;;;;;;;;8.47;77.71;99816.14;1600609;89;21734;-75
2021/11/21 11:19:57;;;;;;;;;;;;;;;8.45;77.69;99810.16;1600780;88;20166;-75
2021/11/21 11:22:23;;;;;;;;;;;;;;;8.45;77.67;99812.81;1597943;89;20657;-76
2021/11/21 11:24:49;;;;;;;;;;;;;;;8.48;77.66;99811.63;1600987;89;20199;-74
2021/11/21 11:27:37;;;;;;;;;;;;;;;8.48;77.63;99812.47;1601343;89;20192;-75
2021/11/21 11:30:04;;;;;;;;;;;;;;;8.45;77.60;99810.16;1600368;89;21166;-75
2021/11/21 11:32:34;;;;;;;;;;;;;;;8.45;77.59;99807.50;1600984;89;20496;-76
2021/11/21 11:35:00;;;;;;;;;;;;;;;8.49;77.59;99807.48;1600614;89;20167;-75
2021/11/21 11:37:39;;;;;;;;;;;;;;;8.49;77.58;99807.48;1601064;89;20245;-75
2021/11/21 11:40:06;;;;;;;;;;;;;;;8.52;77.56;99799.17;1601029;88;20466;-76
2021/11/21 11:42:39;;;;;;;;;;;;;;;8.52;77.55;99800.50;1600979;89;21472;-75
2021/11/21 11:45:07;;;;;;;;;;;;;;;8.50;77.51;99799.86;1599231;89;20224;-76
2021/11/21 11:47:33;;;;;;;;;;;;;;;8.47;77.50;99805.52;1600988;89;20169;-75
2021/11/21 11:49:59;;;;;;;;;;;;;;;8.44;77.47;99805.83;1603131;89;20243;-76
2021/11/21 11:52:57;;;;;;;;;;;;;;;8.42;77.46;99805.19;1605577;89;20164;-75
2021/11/21 11:55:27;;;;;;;;;;;;;;;8.47;77.47;99801.53;1588160;88;20231;-75
2021/11/21 11:58:01;;;;;;;;;;;;;;;8.53;77.44;99802.66;1612838;88;20176;-75
2021/11/21 12:00:37;;;;;;;;;;;;;;;8.58;77.46;99810.13;1611634;88;20193;-75
2021/11/21 12:03:36;;;;;;;;;;;;;;;8.57;77.44;99809.79;1599652;88;20189;-75
2021/11/21 12:06:03;;;;;;;;;;;;;;;8.56;77.45;99806.80;1581787;89;20530;-76
2021/11/21 12:08:28;;;;;;;;;;;;;;;8.50;77.45;99810.48;1600796;88;21257;-75
2021/11/21 12:10:54;;;;;;;;;;;;;;;8.48;77.42;99815.12;1596654;89;20202;-75
2021/11/21 12:13:34;;;;;;;;;;;;;;;8.43;77.41;99806.85;1600673;89;20185;-76
2021/11/21 12:16:04;;;;;;;;;;;;;;;8.39;77.42;99812.17;1594316;89;20174;-76
2021/11/21 12:18:55;;;;;;;;;;;;;;;8.36;77.39;99813.84;1600166;89;20173;-76
2021/11/21 12:21:44;;;;;;;;;;;;;;;8.29;77.40;99804.90;1614158;89;22131;-76
2021/11/21 12:24:25;;;;;;;;;;;;;;;8.28;77.40;99803.70;1614744;87;20206;-76
2021/11/21 12:26:53;;;;;;;;;;;;;;;8.31;77.40;99805.55;1612344;88;20157;-76
2021/11/21 12:29:35;;;;;;;;;;;;;;;8.37;77.39;99810.17;1606048;88;20579;-76
2021/11/21 12:32:19;;;;;;;;;;;;;;;8.38;77.39;99814.49;1565629;91;20164;-76
2021/11/21 12:34:48;;;;;;;;;;;;;;;8.38;77.39;99815.82;1566141;90;21097;-76
2021/11/21 12:37:18;;;;;;;;;;;;;;;8.42;77.40;99812.33;1565896;90;20229;-76
2021/11/21 12:39:47;;;;;;;;;;;;;;;8.45;77.41;99812.81;1565798;90;20461;-76
2021/11/21 12:42:16;;;;;;;;;;;;;;;8.46;77.39;99808.33;1565563;91;20490;-76
2021/11/21 12:44:42;;;;;;;;;;;;;;;8.45;77.41;99807.50;1565818;90;20194;-76
2021/11/21 12:47:09;;;;;;;;;;;;;;;8.44;77.39;99808.48;1582902;90;21921;-76
2021/11/21 12:49:35;;;;;;;;;;;;;;;8.42;77.39;99818.47;1582924;90;20194;-76
2021/11/21 12:52:04;;;;;;;;;;;;;;;8.38;77.37;99808.34;1582344;90;20180;-75
2021/11/21 12:54:30;;;;;;;;;;;;;;;8.32;77.36;99815.67;1582942;90;20483;-75
2021/11/21 12:56:56;;;;;;;;;;;;;;;8.30;77.39;99823.80;1582969;90;20211;-75